Terminal Aerodrome Forecast
Issued by NWS Austin/San Antonio, TX

Home | Current Version | Previous Version | Text Only | Print | Product List | Glossary On
Versions: 1 2 3 4 5 6 7 8 9 10 11 12 13 14
284
FTUS44 KEWX 230536
TAFSAT
TAF
KSAT 230536Z 2306/2412 15011KT P6SM FEW250
     FM231100 16007KT P6SM BKN020
     FM231400 16012KT P6SM FEW035 SCT250
     FM240600 14007KT P6SM BKN016=

USA.gov is the U.S. government's official web portal to all federal, state and local government web resources and services.